createdAt,value
2023-03-11T00:00:55.369Z,2.90
2023-03-11T00:03:27.638Z,2.90
2023-03-11T00:05:54.870Z,2.70
2023-03-11T00:08:24.472Z,2.50
2023-03-11T00:10:53.933Z,3.10
2023-03-11T00:13:21.212Z,2.80
2023-03-11T00:15:50.485Z,2.40
2023-03-11T00:18:17.910Z,2.20
2023-03-11T00:20:46.377Z,2.60
2023-03-11T00:23:15.159Z,2.60
2023-03-11T00:25:44.529Z,2.50
2023-03-11T00:28:11.964Z,2.50
2023-03-11T00:30:39.804Z,1.90
2023-03-11T00:33:07.131Z,2.50
2023-03-11T00:35:34.977Z,2.10
2023-03-11T00:38:07.340Z,2.00
2023-03-11T00:40:36.182Z,2.10
2023-03-11T00:43:03.695Z,2.30
2023-03-11T00:45:30.856Z,2.40
2023-03-11T00:47:58.035Z,3.30
2023-03-11T00:50:28.569Z,2.80
2023-03-11T00:52:55.430Z,2.80
2023-03-11T00:55:25.302Z,3.10
2023-03-11T00:57:55.201Z,3.40
2023-03-11T01:00:24.983Z,2.60
2023-03-11T01:02:53.371Z,2.60
2023-03-11T01:05:26.335Z,3.20
2023-03-11T01:07:53.183Z,2.80
2023-03-11T01:10:20.321Z,2.60
2023-03-11T01:12:47.170Z,2.90
2023-03-11T01:15:22.437Z,2.50
2023-03-11T01:17:49.063Z,2.50
2023-03-11T01:20:16.145Z,2.90
2023-03-11T01:22:45.054Z,2.90
2023-03-11T01:25:17.108Z,2.70
2023-03-11T01:27:44.835Z,2.40
2023-03-11T01:30:16.388Z,2.70
2023-03-11T01:32:43.897Z,2.40
2023-03-11T01:35:15.649Z,2.50
2023-03-11T01:37:42.315Z,2.60
2023-03-11T01:40:15.368Z,2.40
2023-03-11T01:42:42.070Z,2.60
2023-03-11T01:45:33.090Z,2.50
2023-03-11T01:48:00.199Z,3.10
2023-03-11T01:50:34.789Z,2.40
2023-03-11T01:53:02.342Z,2.10
2023-03-11T01:55:31.235Z,1.90
2023-03-11T01:57:59.540Z,2.10
2023-03-11T02:00:26.336Z,2.50
2023-03-11T02:02:56.127Z,2.40
2023-03-11T02:05:24.609Z,2.30
2023-03-11T02:07:54.689Z,2.40
2023-03-11T02:10:22.559Z,2.70
2023-03-11T02:12:50.944Z,2.70
2023-03-11T02:15:25.040Z,2.60
2023-03-11T02:17:52.735Z,2.30
2023-03-11T02:21:04.978Z,2.60
2023-03-11T02:24:13.204Z,2.00
2023-03-11T02:26:40.032Z,2.30
2023-03-11T02:29:09.461Z,2.10
2023-03-11T02:31:41.796Z,2.00
2023-03-11T02:34:21.368Z,2.00
2023-03-11T02:36:48.688Z,2.40
2023-03-11T02:39:15.845Z,2.30
2023-03-11T02:41:47.322Z,2.50
2023-03-11T02:44:16.424Z,1.80
2023-03-11T02:46:45.095Z,2.20
2023-03-11T02:49:12.481Z,2.30
2023-03-11T02:51:39.112Z,2.30
2023-03-11T02:54:06.794Z,2.10
2023-03-11T02:56:33.752Z,2.40
2023-03-11T02:59:00.381Z,2.10
2023-03-11T03:01:28.624Z,2.30
2023-03-11T03:03:55.366Z,1.90
2023-03-11T03:06:22.214Z,2.00
2023-03-11T03:08:49.714Z,2.40
2023-03-11T03:11:16.926Z,2.30
2023-03-11T03:13:43.549Z,1.90
2023-03-11T03:16:10.191Z,1.80
2023-03-11T03:18:37.221Z,1.70
2023-03-11T03:21:04.541Z,2.00
2023-03-11T03:23:35.369Z,2.20
2023-03-11T03:26:02.446Z,1.60
2023-03-11T03:28:29.819Z,2.10
2023-03-11T03:30:56.732Z,2.10
2023-03-11T03:33:23.450Z,1.60
2023-03-11T03:35:50.265Z,1.80
2023-03-11T03:38:21.303Z,1.90
2023-03-11T03:40:49.056Z,1.70
2023-03-11T03:43:17.789Z,1.80
2023-03-11T03:45:44.940Z,1.50
2023-03-11T03:48:11.726Z,1.70
2023-03-11T03:50:41.286Z,1.40
2023-03-11T03:53:08.303Z,1.70
2023-03-11T03:55:35.058Z,1.50
2023-03-11T03:58:01.950Z,1.40
2023-03-11T04:00:31.790Z,1.50
2023-03-11T04:03:00.155Z,1.80
2023-03-11T04:05:36.696Z,1.30
2023-03-11T04:08:03.793Z,1.70
2023-03-11T04:10:30.851Z,1.60
2023-03-11T04:12:58.126Z,1.70
2023-03-11T04:15:26.128Z,1.60
2023-03-11T04:17:53.290Z,1.40
2023-03-11T04:20:20.094Z,1.40
2023-03-11T04:22:48.311Z,1.50
2023-03-11T04:25:15.400Z,1.40
2023-03-11T04:27:45.939Z,1.60
2023-03-11T04:30:13.452Z,1.80
2023-03-11T04:32:40.388Z,1.60
2023-03-11T04:35:07.468Z,1.60
2023-03-11T04:37:34.481Z,1.40
2023-03-11T04:40:01.287Z,1.50
2023-03-11T04:42:29.536Z,1.50
2023-03-11T04:44:56.262Z,1.60
2023-03-11T04:47:23.428Z,1.60
2023-03-11T04:49:50.157Z,1.30
2023-03-11T04:52:16.965Z,1.80
2023-03-11T04:54:43.614Z,1.40
2023-03-11T04:57:10.426Z,1.60
2023-03-11T04:59:38.380Z,1.60
2023-03-11T05:02:05.122Z,1.70
2023-03-11T05:04:32.324Z,1.60
2023-03-11T05:06:59.555Z,1.50
2023-03-11T05:09:26.625Z,1.50
2023-03-11T05:11:53.997Z,1.60
2023-03-11T05:14:20.984Z,1.30
2023-03-11T05:16:48.086Z,1.50
2023-03-11T05:19:35.417Z,1.50
2023-03-11T05:22:10.369Z,1.10
2023-03-11T05:24:37.352Z,1.60
2023-03-11T05:27:04.932Z,1.60
2023-03-11T05:29:32.924Z,1.50
2023-03-11T05:31:59.596Z,1.40
2023-03-11T05:34:26.362Z,1.40
2023-03-11T05:36:53.136Z,1.60
2023-03-11T05:39:20.306Z,1.50
2023-03-11T05:41:47.824Z,1.60
2023-03-11T05:44:15.089Z,1.80
2023-03-11T05:46:42.235Z,1.60
2023-03-11T05:49:09.853Z,1.40
2023-03-11T05:51:37.722Z,1.50
2023-03-11T05:54:04.624Z,1.70
2023-03-11T05:56:37.689Z,1.40
2023-03-11T05:59:04.896Z,1.50
2023-03-11T06:01:34.053Z,1.40
2023-03-11T06:04:01.499Z,1.20
2023-03-11T06:06:28.396Z,1.50
2023-03-11T06:08:55.316Z,1.50
2023-03-11T06:11:26.960Z,1.50
2023-03-11T06:13:55.321Z,1.40
2023-03-11T06:16:24.178Z,1.10
2023-03-11T06:18:52.222Z,1.40
2023-03-11T06:21:24.028Z,1.40
2023-03-11T06:23:50.876Z,1.30
2023-03-11T06:26:20.476Z,1.60
2023-03-11T06:28:48.595Z,3.20
2023-03-11T06:31:25.612Z,1.70
2023-03-11T06:33:56.053Z,1.90
2023-03-11T06:36:23.554Z,2.00
2023-03-11T06:38:52.506Z,1.90
2023-03-11T06:41:19.563Z,1.80
2023-03-11T06:43:46.242Z,2.00
2023-03-11T06:46:22.452Z,1.70
2023-03-11T06:48:52.373Z,1.30
2023-03-11T06:51:21.264Z,1.60
2023-03-11T06:53:54.804Z,2.10
2023-03-11T06:56:23.427Z,1.40
2023-03-11T07:03:57.355Z,1.00
2023-03-11T07:06:26.149Z,1.50
2023-03-11T07:08:57.718Z,1.70
2023-03-11T07:11:28.427Z,1.60
2023-03-11T07:14:00.273Z,1.70
2023-03-11T07:16:30.769Z,1.70
2023-03-11T07:19:03.465Z,2.00
2023-03-11T07:21:31.734Z,1.80
2023-03-11T07:24:01.247Z,1.80
2023-03-11T07:26:29.374Z,1.50
2023-03-11T07:28:57.070Z,1.90
2023-03-11T07:31:26.970Z,2.30
2023-03-11T07:33:54.058Z,2.30
2023-03-11T07:36:22.563Z,2.30
2023-03-11T07:38:49.805Z,2.60
2023-03-11T07:41:16.679Z,3.20
2023-03-11T07:43:44.175Z,3.00
2023-03-11T07:46:14.278Z,3.50
2023-03-11T07:48:40.991Z,3.00
2023-03-11T07:51:12.612Z,2.90
2023-03-11T07:53:40.794Z,2.20
2023-03-11T07:56:09.071Z,2.50
2023-03-11T07:58:35.920Z,3.10
2023-03-11T08:01:07.684Z,3.00
2023-03-11T08:03:35.442Z,3.20
2023-03-11T08:06:02.696Z,3.40
2023-03-11T08:08:29.270Z,3.20
2023-03-11T08:10:55.919Z,4.00
2023-03-11T08:13:22.577Z,4.70
2023-03-11T08:15:49.311Z,3.40
2023-03-11T08:18:17.093Z,3.70
2023-03-11T08:20:45.503Z,4.10
2023-03-11T08:23:12.241Z,3.30
2023-03-11T08:25:40.222Z,3.70
2023-03-11T08:28:07.760Z,5.30
2023-03-11T08:30:35.123Z,3.80
2023-03-11T08:33:01.811Z,3.50
2023-03-11T08:35:28.497Z,3.90
2023-03-11T08:37:55.201Z,3.80
2023-03-11T08:40:21.992Z,3.90
2023-03-11T08:42:49.093Z,3.90
2023-03-11T08:45:16.015Z,4.30
2023-03-11T08:47:43.064Z,3.10
2023-03-11T08:50:14.622Z,3.20
2023-03-11T08:52:41.489Z,4.10
2023-03-11T08:55:16.603Z,4.90
2023-03-11T08:57:43.357Z,6.20
2023-03-11T09:00:13.224Z,4.80
2023-03-11T09:02:41.610Z,3.80
2023-03-11T09:05:08.786Z,4.30
2023-03-11T09:07:35.753Z,5.40
2023-03-11T09:10:02.699Z,5.50
2023-03-11T09:12:30.453Z,6.10
2023-03-11T09:14:57.274Z,7.20
2023-03-11T09:17:23.910Z,6.30
2023-03-11T09:19:50.661Z,7.00
2023-03-11T09:22:17.637Z,7.20
2023-03-11T09:24:44.380Z,7.40
2023-03-11T09:27:13.147Z,7.80
2023-03-11T09:29:39.747Z,7.00
2023-03-11T09:32:06.669Z,7.70
2023-03-11T09:34:33.377Z,6.60
2023-03-11T09:37:01.680Z,5.20
2023-03-11T09:39:28.306Z,6.80
2023-03-11T09:41:59.323Z,6.40
2023-03-11T09:44:38.203Z,6.30
2023-03-11T09:47:22.912Z,9.30
2023-03-11T09:50:18.345Z,10.50
2023-03-11T09:53:10.646Z,9.00
2023-03-11T09:55:53.983Z,9.40
2023-03-11T09:58:38.353Z,7.10
2023-03-11T10:01:15.512Z,7.60
2023-03-11T10:03:44.419Z,7.90
2023-03-11T10:06:26.101Z,5.80
2023-03-11T10:09:27.155Z,7.20
2023-03-11T10:12:03.108Z,7.30
2023-03-11T10:14:29.682Z,8.20
2023-03-11T10:17:08.606Z,8.80
2023-03-11T10:19:35.145Z,5.50
2023-03-11T10:22:27.124Z,7.00
2023-03-11T10:25:14.732Z,9.20
2023-03-11T10:27:55.030Z,7.80
2023-03-11T10:30:24.906Z,8.00
2023-03-11T10:33:22.506Z,11.50
2023-03-11T10:35:54.943Z,7.20
2023-03-11T10:38:42.327Z,7.90
2023-03-11T10:41:32.269Z,7.70
2023-03-11T10:44:19.151Z,7.90
2023-03-11T10:46:45.800Z,9.30
2023-03-11T10:49:15.601Z,9.30
2023-03-11T10:51:46.320Z,10.70
2023-03-11T10:54:33.072Z,11.20
2023-03-11T10:57:03.005Z,8.50
2023-03-11T10:59:46.364Z,9.10
2023-03-11T11:02:27.529Z,8.00
2023-03-11T11:05:05.801Z,7.60
2023-03-11T11:07:41.257Z,9.20
2023-03-11T11:10:13.841Z,11.30
2023-03-11T11:13:02.074Z,7.50
2023-03-11T11:15:34.445Z,11.30
2023-03-11T11:18:07.150Z,7.80
2023-03-11T11:20:34.777Z,11.00
2023-03-11T11:23:03.912Z,8.90
2023-03-11T11:25:33.069Z,8.50
2023-03-11T11:28:15.862Z,9.10
2023-03-11T11:31:00.527Z,11.30
2023-03-11T11:33:40.284Z,10.70
2023-03-11T11:36:15.108Z,7.80
2023-03-11T11:38:42.478Z,11.40
2023-03-11T11:41:16.810Z,8.10
2023-03-11T11:43:46.470Z,9.90
2023-03-11T11:46:30.336Z,10.50
2023-03-11T11:49:02.647Z,9.50
2023-03-11T11:51:41.142Z,10.30
2023-03-11T11:54:10.429Z,8.00
2023-03-11T11:56:37.083Z,7.30
2023-03-11T11:59:15.129Z,9.60
2023-03-11T12:02:03.886Z,10.80
2023-03-11T12:05:09.427Z,9.50
2023-03-11T12:07:39.551Z,8.30
2023-03-11T12:10:23.351Z,9.30
2023-03-11T12:13:29.290Z,8.00
2023-03-11T12:16:02.369Z,9.70
2023-03-11T12:18:31.927Z,7.80
2023-03-11T12:20:59.644Z,9.20
2023-03-11T12:23:48.118Z,7.70
2023-03-11T12:26:22.149Z,10.70
2023-03-11T12:28:57.395Z,10.00
2023-03-11T12:31:27.261Z,8.10
2023-03-11T12:34:03.251Z,8.10
2023-03-11T12:36:37.615Z,8.70
2023-03-11T12:39:07.673Z,8.60
2023-03-11T12:41:42.269Z,7.00
2023-03-11T12:44:28.996Z,9.90
2023-03-11T12:46:58.834Z,7.20
2023-03-11T12:49:31.092Z,8.20
2023-03-11T12:52:15.768Z,8.20
2023-03-11T12:54:43.544Z,6.30
2023-03-11T12:57:48.416Z,8.10
2023-03-11T13:00:39.419Z,6.10
2023-03-11T13:03:37.457Z,9.20
2023-03-11T13:06:30.086Z,8.10
2023-03-11T13:08:59.181Z,6.80
2023-03-11T13:11:34.420Z,8.10
2023-03-11T13:14:22.272Z,7.50
2023-03-11T13:16:50.289Z,10.60
2023-03-11T13:19:51.300Z,6.60
2023-03-11T13:22:44.475Z,7.70
2023-03-11T13:25:29.787Z,9.20
2023-03-11T13:28:08.106Z,9.70
2023-03-11T13:30:40.422Z,6.40
2023-03-11T13:33:40.480Z,7.70
2023-03-11T13:36:35.992Z,6.80
2023-03-11T13:39:31.578Z,9.50
2023-03-11T13:41:58.244Z,7.40
2023-03-11T13:44:29.552Z,5.90
2023-03-11T13:47:17.108Z,8.40
2023-03-11T13:50:17.102Z,7.40
2023-03-11T13:52:48.905Z,8.90
2023-03-11T13:55:22.294Z,8.90
2023-03-11T13:57:54.576Z,7.10
2023-03-11T14:00:28.573Z,9.00
2023-03-11T14:03:14.876Z,7.00
2023-03-11T14:05:46.501Z,6.60
2023-03-11T14:08:27.276Z,9.80
2023-03-11T14:10:57.062Z,9.30
2023-03-11T14:13:25.973Z,7.40
2023-03-11T14:16:14.656Z,9.60
2023-03-11T14:18:43.558Z,8.00
2023-03-11T14:21:19.058Z,7.20
2023-03-11T14:23:51.287Z,8.60
2023-03-11T14:26:21.113Z,7.60
2023-03-11T14:28:58.911Z,8.60
2023-03-11T14:34:10.118Z,8.20
2023-03-11T14:36:45.519Z,9.40
2023-03-11T14:39:24.262Z,10.60
2023-03-11T14:41:55.510Z,10.10
2023-03-11T14:44:26.381Z,9.30
2023-03-11T14:47:02.922Z,8.30
2023-03-11T14:49:30.258Z,9.70
2023-03-11T14:52:04.181Z,10.70
2023-03-11T14:54:34.626Z,9.80
2023-03-11T14:57:18.409Z,10.40
2023-03-11T15:02:18.522Z,9.30
2023-03-11T15:04:45.350Z,9.50
2023-03-11T15:07:13.658Z,9.70
2023-03-11T15:09:42.197Z,8.60
2023-03-11T15:12:41.324Z,5.30
2023-03-11T15:15:40.961Z,7.90
2023-03-11T15:18:24.324Z,6.20
2023-03-11T15:21:18.727Z,8.00
2023-03-11T15:23:49.228Z,5.50
2023-03-11T15:26:20.876Z,9.70
2023-03-11T15:28:54.529Z,5.40
2023-03-11T15:31:21.373Z,7.00
2023-03-11T15:33:49.129Z,10.70
2023-03-11T15:36:39.567Z,10.20
2023-03-11T15:39:26.444Z,9.20
2023-03-11T15:42:03.739Z,9.00
2023-03-11T15:44:40.770Z,6.30
2023-03-11T15:47:16.034Z,9.30
2023-03-11T15:49:42.752Z,9.40
2023-03-11T15:52:10.537Z,9.10
2023-03-11T15:54:37.735Z,7.80
2023-03-11T15:57:08.431Z,9.80
2023-03-11T15:59:37.338Z,10.10
2023-03-11T16:02:04.270Z,9.70
2023-03-11T16:04:30.967Z,10.70
2023-03-11T16:07:07.524Z,8.80
2023-03-11T16:09:35.402Z,7.40
2023-03-11T16:12:06.056Z,8.20
2023-03-11T16:14:32.717Z,7.10
2023-03-11T16:16:59.372Z,9.30
2023-03-11T16:19:26.068Z,9.50
2023-03-11T16:21:52.833Z,8.90
2023-03-11T16:24:22.533Z,8.40
2023-03-11T16:26:52.194Z,9.80
2023-03-11T16:29:20.182Z,10.00
2023-03-11T16:31:47.177Z,10.10
2023-03-11T16:34:13.782Z,10.30
2023-03-11T16:36:40.564Z,8.70
2023-03-11T16:39:07.203Z,7.80
2023-03-11T16:41:45.051Z,10.60
2023-03-11T16:46:38.824Z,9.60
2023-03-11T16:49:05.696Z,9.40
2023-03-11T16:51:33.049Z,10.80
2023-03-11T16:54:00.164Z,9.90
2023-03-11T16:56:26.944Z,8.90
2023-03-11T16:58:53.639Z,10.30
2023-03-11T17:01:21.785Z,9.20
2023-03-11T17:03:50.828Z,9.30
2023-03-11T17:06:18.763Z,7.60
2023-03-11T17:08:49.394Z,10.60
2023-03-11T17:11:19.504Z,9.80
2023-03-11T17:13:46.393Z,11.30
2023-03-11T17:16:13.227Z,12.00
2023-03-11T17:18:40.105Z,9.90
2023-03-11T17:21:12.421Z,11.00
2023-03-11T17:23:39.340Z,10.80
2023-03-11T17:26:11.754Z,10.70
2023-03-11T17:28:40.181Z,10.50
2023-03-11T17:31:12.534Z,10.70
2023-03-11T17:33:39.389Z,10.70
2023-03-11T17:36:09.155Z,10.00
2023-03-11T17:38:35.763Z,10.90
2023-03-11T17:41:10.666Z,11.30
2023-03-11T17:43:37.303Z,11.20
2023-03-11T17:46:08.052Z,12.10
2023-03-11T17:48:34.730Z,11.90
2023-03-11T17:51:10.231Z,10.80
2023-03-11T17:53:41.201Z,11.70
2023-03-11T17:56:08.961Z,11.90
2023-03-11T17:58:35.985Z,11.50
2023-03-11T18:01:04.840Z,12.00
2023-03-11T18:03:31.490Z,12.40
2023-03-11T18:06:00.956Z,12.20
2023-03-11T18:08:28.311Z,11.40
2023-03-11T18:10:59.422Z,12.90
2023-03-11T18:13:26.812Z,12.20
2023-03-11T18:16:05.930Z,12.80
2023-03-11T18:18:35.204Z,35.20
2023-03-11T18:21:03.986Z,23.20
2023-03-11T18:23:33.226Z,23.90
2023-03-11T18:26:01.923Z,13.80
2023-03-11T18:28:29.371Z,13.40
2023-03-11T18:30:56.177Z,12.60
2023-03-11T18:33:24.594Z,13.10
2023-03-11T18:35:51.293Z,12.70
2023-03-11T18:38:17.938Z,11.30
2023-03-11T18:40:44.578Z,12.10
2023-03-11T18:43:14.727Z,13.10
2023-03-11T18:45:41.480Z,11.70
2023-03-11T18:48:08.110Z,13.60
2023-03-11T18:50:34.802Z,12.60
2023-03-11T18:53:01.946Z,17.80
2023-03-11T18:55:28.657Z,12.30
2023-03-11T18:57:55.313Z,10.20
2023-03-11T19:00:23.671Z,12.30
2023-03-11T19:02:52.143Z,12.00
2023-03-11T19:05:18.991Z,14.50
2023-03-11T19:07:45.737Z,13.80
2023-03-11T19:10:15.055Z,10.50
2023-03-11T19:12:43.759Z,11.20
2023-03-11T19:15:11.887Z,11.60
2023-03-11T19:17:38.568Z,10.50
2023-03-11T19:20:09.178Z,10.60
2023-03-11T19:22:37.205Z,9.40
2023-03-11T19:25:05.213Z,8.60
2023-03-11T19:27:32.267Z,9.40
2023-03-11T19:29:58.838Z,8.10
2023-03-11T19:32:25.450Z,7.90
2023-03-11T19:34:52.070Z,8.00
2023-03-11T19:37:18.716Z,8.30
2023-03-11T19:39:45.306Z,9.00
2023-03-11T19:42:11.983Z,7.60
2023-03-11T19:44:38.842Z,8.20
2023-03-11T19:47:05.601Z,7.70
2023-03-11T19:49:32.247Z,6.70
2023-03-11T19:51:59.016Z,7.40
2023-03-11T19:54:25.696Z,6.10
2023-03-11T19:56:52.349Z,6.80
2023-03-11T19:59:19.135Z,7.10
2023-03-11T20:01:45.912Z,7.00
2023-03-11T20:04:15.327Z,7.00
2023-03-11T20:06:42.442Z,7.20
2023-03-11T20:09:09.232Z,6.80
2023-03-11T20:11:40.241Z,6.20
2023-03-11T20:14:08.015Z,7.00
2023-03-11T20:16:34.767Z,6.90
2023-03-11T20:19:01.535Z,9.20
2023-03-11T20:21:28.332Z,7.50
2023-03-11T20:23:56.694Z,5.70
2023-03-11T20:26:24.229Z,9.60
2023-03-11T20:28:54.379Z,12.00
2023-03-11T20:31:23.691Z,14.60
2023-03-11T20:33:51.893Z,11.90
2023-03-11T20:36:22.720Z,10.50
2023-03-11T20:38:52.437Z,12.10
2023-03-11T20:41:19.261Z,11.80
2023-03-11T20:43:46.363Z,10.40
2023-03-11T20:46:13.200Z,9.60
2023-03-11T20:48:40.866Z,9.10
2023-03-11T20:51:10.808Z,8.30
2023-03-11T20:53:38.484Z,8.90
2023-03-11T20:56:08.702Z,8.40
2023-03-11T20:58:36.257Z,7.60
2023-03-11T21:01:13.441Z,5.40
2023-03-11T21:03:40.281Z,7.90
2023-03-11T21:06:14.474Z,6.00
2023-03-11T21:08:41.199Z,6.60
2023-03-11T21:11:07.891Z,5.10
2023-03-11T21:13:35.898Z,4.30
2023-03-11T21:16:04.725Z,4.80
2023-03-11T21:18:31.430Z,5.20
2023-03-11T21:20:58.615Z,3.80
2023-03-11T21:23:25.578Z,3.70
2023-03-11T21:25:59.674Z,4.80
2023-03-11T21:28:27.117Z,2.40
2023-03-11T21:30:58.932Z,2.90
2023-03-11T21:33:25.856Z,4.20
2023-03-11T21:35:58.065Z,4.60
2023-03-11T21:38:25.397Z,4.00
2023-03-11T21:40:53.583Z,3.30
2023-03-11T21:43:21.185Z,3.30
2023-03-11T21:45:47.928Z,2.90
2023-03-11T21:48:14.779Z,3.30
2023-03-11T21:50:42.216Z,3.20
2023-03-11T21:53:08.971Z,4.00
2023-03-11T21:55:35.624Z,2.50
2023-03-11T21:58:02.235Z,3.60
2023-03-11T22:00:28.982Z,3.00
2023-03-11T22:02:55.660Z,3.80
2023-03-11T22:05:22.420Z,3.50
2023-03-11T22:07:49.021Z,3.70
2023-03-11T22:10:16.085Z,3.00
2023-03-11T22:12:42.744Z,3.00
2023-03-11T22:15:10.046Z,4.30
2023-03-11T22:17:37.025Z,4.00
2023-03-11T22:20:05.892Z,3.40
2023-03-11T22:22:33.532Z,3.90
2023-03-11T22:25:00.310Z,4.10
2023-03-11T22:27:27.220Z,3.30
2023-03-11T22:29:53.801Z,3.40
2023-03-11T22:32:20.453Z,3.00
2023-03-11T22:34:47.227Z,3.60
2023-03-11T22:37:14.123Z,3.60
2023-03-11T22:39:40.856Z,3.60
2023-03-11T22:42:07.498Z,3.20
2023-03-11T22:44:34.093Z,3.30
2023-03-11T22:47:00.779Z,3.20
2023-03-11T22:49:27.466Z,4.00
2023-03-11T22:51:54.117Z,3.00
2023-03-11T22:54:20.801Z,3.30
2023-03-11T22:56:47.437Z,3.20
2023-03-11T22:59:14.080Z,3.10
2023-03-11T23:01:40.843Z,2.50
2023-03-11T23:04:07.510Z,2.70
2023-03-11T23:06:34.193Z,3.10
2023-03-11T23:09:00.808Z,3.10
2023-03-11T23:11:27.397Z,2.40
2023-03-11T23:13:54.053Z,2.90
2023-03-11T23:16:22.111Z,2.80
2023-03-11T23:18:51.405Z,3.50
2023-03-11T23:21:27.848Z,2.60
2023-03-11T23:23:56.015Z,2.50
2023-03-11T23:26:23.694Z,3.00
2023-03-11T23:28:53.840Z,2.80
2023-03-11T23:31:22.783Z,2.60
2023-03-11T23:33:50.091Z,2.60
2023-03-11T23:36:19.959Z,2.30
2023-03-11T23:38:47.649Z,1.90
2023-03-11T23:41:20.839Z,2.30
2023-03-11T23:43:47.883Z,2.00
2023-03-11T23:46:15.364Z,2.10
2023-03-11T23:48:42.087Z,2.30
2023-03-11T23:51:09.510Z,2.30
2023-03-11T23:53:37.134Z,2.60
2023-03-11T23:56:12.664Z,2.20
2023-03-11T23:58:39.358Z,3.30
